createdAt,value
2022-12-24T00:01:12.351Z,52.20
2022-12-24T00:03:45.718Z,51.60
2022-12-24T00:06:23.369Z,54.20
2022-12-24T00:09:00.277Z,62.00
2022-12-24T00:11:44.030Z,67.50
2022-12-24T00:14:17.365Z,56.50
2022-12-24T00:16:50.813Z,58.20
2022-12-24T00:19:25.884Z,58.90
2022-12-24T00:21:59.832Z,60.00
2022-12-24T00:24:32.163Z,61.30
2022-12-24T00:27:06.603Z,64.30
2022-12-24T00:29:39.043Z,65.80
2022-12-24T00:32:13.894Z,66.10
2022-12-24T00:34:48.495Z,68.50
2022-12-24T00:37:20.518Z,66.30
2022-12-24T00:39:52.963Z,65.60
2022-12-24T00:42:26.134Z,65.00
2022-12-24T00:44:58.943Z,61.90
2022-12-24T00:47:35.562Z,63.30
2022-12-24T00:50:11.136Z,59.00
2022-12-24T00:52:43.024Z,55.10
2022-12-24T00:55:17.990Z,55.30
2022-12-24T00:57:51.024Z,56.70
2022-12-24T01:00:25.726Z,56.00
2022-12-24T01:02:58.035Z,56.40
2022-12-24T01:05:31.269Z,56.50
2022-12-24T01:08:04.660Z,55.60
2022-12-24T01:10:37.315Z,55.20
2022-12-24T01:13:11.691Z,56.60
2022-12-24T01:15:44.201Z,55.80
2022-12-24T01:18:19.656Z,54.50
2022-12-24T01:21:00.761Z,55.40
2022-12-24T01:23:34.768Z,54.60
2022-12-24T01:26:08.592Z,54.70
2022-12-24T01:28:42.370Z,56.30
2022-12-24T01:31:17.889Z,60.20
2022-12-24T01:33:53.182Z,63.30
2022-12-24T01:36:25.507Z,61.50
2022-12-24T01:38:58.699Z,62.40
2022-12-24T01:41:52.003Z,63.70
2022-12-24T01:44:35.152Z,62.30
2022-12-24T01:47:12.724Z,61.70
2022-12-24T01:49:46.511Z,61.80
2022-12-24T01:52:20.777Z,61.90
2022-12-24T01:54:56.068Z,62.90
2022-12-24T01:57:31.565Z,63.60
2022-12-24T02:00:09.573Z,65.70
2022-12-24T02:02:44.926Z,63.30
2022-12-24T02:05:19.947Z,65.40
2022-12-24T02:07:53.232Z,69.70
2022-12-24T02:10:27.523Z,66.70
2022-12-24T02:13:00.880Z,66.90
2022-12-24T02:15:39.961Z,64.60
2022-12-24T02:18:19.441Z,66.50
2022-12-24T02:21:10.740Z,65.40
2022-12-24T02:23:55.979Z,67.30
2022-12-24T02:26:41.252Z,66.70
2022-12-24T02:29:32.372Z,68.10
2022-12-24T02:32:07.706Z,68.30
2022-12-24T02:34:42.082Z,66.80
2022-12-24T02:37:17.823Z,64.70
2022-12-24T02:39:53.962Z,64.50
2022-12-24T02:42:30.409Z,59.50
2022-12-24T02:45:06.197Z,59.00
2022-12-24T02:47:39.720Z,56.30
2022-12-24T02:50:16.611Z,55.30
2022-12-24T02:52:51.008Z,50.80
2022-12-24T02:55:26.978Z,54.80
2022-12-24T02:58:12.902Z,53.70
2022-12-24T03:00:55.405Z,53.70
2022-12-24T03:03:38.227Z,53.40
2022-12-24T03:06:23.110Z,51.60
2022-12-24T03:09:01.082Z,52.30
2022-12-24T03:11:37.283Z,51.50
2022-12-24T03:14:09.978Z,51.90
2022-12-24T03:16:45.856Z,52.30
2022-12-24T03:19:19.239Z,51.80
2022-12-24T03:21:52.214Z,51.40
2022-12-24T03:24:24.972Z,51.90
2022-12-24T03:26:59.817Z,52.70
2022-12-24T03:29:32.228Z,53.20
2022-12-24T03:32:06.253Z,54.80
2022-12-24T03:34:40.203Z,55.50
2022-12-24T03:37:12.403Z,53.80
2022-12-24T03:39:45.397Z,51.10
2022-12-24T03:42:17.309Z,49.10
2022-12-24T03:44:50.275Z,45.50
2022-12-24T03:47:23.076Z,46.60
2022-12-24T03:49:57.036Z,45.20
2022-12-24T03:52:29.659Z,43.50
2022-12-24T03:55:05.569Z,41.60
2022-12-24T03:57:39.846Z,36.30
2022-12-24T04:00:16.333Z,35.50
2022-12-24T04:02:48.729Z,33.40
2022-12-24T04:05:28.700Z,34.10
2022-12-24T04:08:01.071Z,33.80
2022-12-24T04:10:36.580Z,33.30
2022-12-24T04:13:14.981Z,30.70
2022-12-24T04:15:47.797Z,31.40
2022-12-24T04:18:21.225Z,31.10
2022-12-24T04:20:55.780Z,30.40
2022-12-24T04:23:29.334Z,30.60
2022-12-24T04:26:05.598Z,30.50
2022-12-24T04:28:38.746Z,29.10
2022-12-24T04:31:13.634Z,29.40
2022-12-24T04:33:46.746Z,27.80
2022-12-24T04:36:20.994Z,28.40
2022-12-24T04:38:53.838Z,29.20
2022-12-24T04:41:28.282Z,29.60
2022-12-24T04:44:02.685Z,28.80
2022-12-24T04:46:35.629Z,31.70
2022-12-24T04:49:11.816Z,30.70
2022-12-24T04:51:46.769Z,33.60
2022-12-24T04:54:20.049Z,33.00
2022-12-24T04:56:53.451Z,32.70
2022-12-24T04:59:29.640Z,30.10
2022-12-24T05:02:04.680Z,31.70
2022-12-24T05:04:37.096Z,30.70
2022-12-24T05:07:09.035Z,32.10
2022-12-24T05:09:42.930Z,30.60
2022-12-24T05:12:17.730Z,29.60
2022-12-24T05:14:52.501Z,31.00
2022-12-24T05:17:27.475Z,31.40
2022-12-24T05:20:00.030Z,34.30
2022-12-24T05:22:53.539Z,32.60
2022-12-24T05:25:43.372Z,34.50
2022-12-24T05:28:16.856Z,36.70
2022-12-24T05:30:49.828Z,33.90
2022-12-24T05:33:23.100Z,42.30
2022-12-24T05:35:56.767Z,38.20
2022-12-24T05:38:28.896Z,52.10
2022-12-24T05:41:06.094Z,51.20
2022-12-24T05:43:40.594Z,53.10
2022-12-24T05:46:16.781Z,54.50
2022-12-24T05:48:51.796Z,44.30
2022-12-24T05:51:26.785Z,41.70
2022-12-24T05:54:02.475Z,42.30
2022-12-24T05:56:35.812Z,41.90
2022-12-24T05:59:10.812Z,46.70
2022-12-24T06:01:46.465Z,45.50
2022-12-24T06:04:26.533Z,46.30
2022-12-24T06:07:01.848Z,42.40
2022-12-24T06:09:35.352Z,40.20
2022-12-24T06:12:08.653Z,43.40
2022-12-24T06:14:43.552Z,44.20
2022-12-24T06:17:17.968Z,42.10
2022-12-24T06:19:52.146Z,45.40
2022-12-24T06:22:26.662Z,47.20
2022-12-24T06:25:01.737Z,46.70
2022-12-24T06:27:36.263Z,45.20
2022-12-24T06:30:12.495Z,44.50
2022-12-24T06:32:49.582Z,46.60
2022-12-24T06:35:24.556Z,45.10
2022-12-24T06:37:58.060Z,45.50
2022-12-24T06:40:31.849Z,45.60
2022-12-24T06:43:05.437Z,45.60
2022-12-24T06:45:40.513Z,43.50
2022-12-24T06:48:14.714Z,44.40
2022-12-24T06:50:48.975Z,43.80
2022-12-24T06:53:27.122Z,43.50
2022-12-24T06:56:05.940Z,46.90
2022-12-24T06:58:41.955Z,43.00
2022-12-24T07:01:18.170Z,40.10
2022-12-24T07:03:53.041Z,39.80
2022-12-24T07:06:29.458Z,42.10
2022-12-24T07:09:04.276Z,42.10
2022-12-24T07:11:39.495Z,44.30
2022-12-24T07:14:13.588Z,42.80
2022-12-24T07:16:47.589Z,41.80
2022-12-24T07:19:21.764Z,42.10
2022-12-24T07:21:54.035Z,47.30
2022-12-24T07:24:27.839Z,45.00
2022-12-24T07:27:01.421Z,52.90
2022-12-24T07:29:35.739Z,42.20
2022-12-24T07:32:13.097Z,51.20
2022-12-24T07:34:47.828Z,43.80
2022-12-24T07:37:21.224Z,39.40
2022-12-24T07:39:54.007Z,33.30
2022-12-24T07:42:30.865Z,30.80
2022-12-24T07:45:06.227Z,27.70
2022-12-24T07:47:40.459Z,25.20
2022-12-24T07:50:14.451Z,26.00
2022-12-24T07:52:50.614Z,27.40
2022-12-24T07:55:23.475Z,30.10
2022-12-24T07:57:56.416Z,25.00
2022-12-24T08:00:30.370Z,26.50
2022-12-24T08:03:06.014Z,26.40
2022-12-24T08:05:40.016Z,24.40
2022-12-24T08:08:13.059Z,22.90
2022-12-24T08:10:48.194Z,19.60
2022-12-24T08:13:22.817Z,21.60
2022-12-24T08:15:55.054Z,18.80
2022-12-24T08:18:28.497Z,18.60
2022-12-24T08:21:01.262Z,20.30
2022-12-24T08:23:33.310Z,24.40
2022-12-24T08:26:07.547Z,23.00
2022-12-24T08:28:40.332Z,22.50
2022-12-24T08:31:16.062Z,21.50
2022-12-24T08:33:49.411Z,20.80
2022-12-24T08:36:21.704Z,25.10
2022-12-24T08:38:53.954Z,21.90
2022-12-24T08:41:27.077Z,24.80
2022-12-24T08:43:59.131Z,23.00
2022-12-24T08:46:33.228Z,23.00
2022-12-24T08:49:06.104Z,23.20
2022-12-24T08:51:42.759Z,22.60
2022-12-24T08:54:19.305Z,21.90
2022-12-24T08:56:51.834Z,21.80
2022-12-24T08:59:25.485Z,23.10
2022-12-24T09:01:57.752Z,23.60
2022-12-24T09:04:30.252Z,22.90
2022-12-24T09:07:05.145Z,20.10
2022-12-24T09:09:38.491Z,22.80
2022-12-24T09:12:13.620Z,18.70
2022-12-24T09:14:46.365Z,24.40
2022-12-24T09:17:20.171Z,24.60
2022-12-24T09:19:53.432Z,21.20
2022-12-24T09:22:26.670Z,19.70
2022-12-24T09:24:58.766Z,20.10
2022-12-24T09:27:32.825Z,20.80
2022-12-24T09:30:07.196Z,20.10
2022-12-24T09:32:39.237Z,20.90
2022-12-24T09:35:12.689Z,17.80
2022-12-24T09:37:45.236Z,18.60
2022-12-24T09:40:28.159Z,18.10
2022-12-24T09:43:01.801Z,16.80
2022-12-24T09:45:40.799Z,126.30
2022-12-24T09:48:16.719Z,23.90
2022-12-24T09:50:53.264Z,19.10
2022-12-24T09:53:29.317Z,20.00
2022-12-24T09:56:05.974Z,20.10
2022-12-24T09:58:41.411Z,17.50
2022-12-24T10:01:17.353Z,16.60
2022-12-24T10:03:53.352Z,17.30
2022-12-24T10:06:29.775Z,17.30
2022-12-24T10:09:07.063Z,16.50
2022-12-24T10:11:51.003Z,16.10
2022-12-24T10:14:36.216Z,15.30
2022-12-24T10:17:29.872Z,17.30
2022-12-24T10:20:24.136Z,16.30
2022-12-24T10:23:08.879Z,17.30
2022-12-24T10:25:47.771Z,18.80
2022-12-24T10:28:24.383Z,17.40
2022-12-24T10:31:01.553Z,21.40
2022-12-24T10:33:39.942Z,17.30
2022-12-24T10:36:14.492Z,17.50
2022-12-24T10:38:48.537Z,19.50
2022-12-24T10:41:23.318Z,18.70
2022-12-24T10:43:57.541Z,21.70
2022-12-24T10:46:36.479Z,21.60
2022-12-24T10:49:12.645Z,28.60
2022-12-24T10:51:52.390Z,29.40
2022-12-24T10:54:28.316Z,21.60
2022-12-24T10:57:02.668Z,16.60
2022-12-24T10:59:45.948Z,19.00
2022-12-24T11:02:32.568Z,16.90
2022-12-24T11:05:08.801Z,17.30
2022-12-24T11:07:44.938Z,16.80
2022-12-24T11:10:26.486Z,18.60
2022-12-24T11:13:35.157Z,17.70
2022-12-24T11:16:01.758Z,16.80
2022-12-24T11:18:35.564Z,16.20
2022-12-24T11:21:09.343Z,23.00
2022-12-24T11:23:43.754Z,16.30
2022-12-24T11:26:26.810Z,18.20
2022-12-24T11:29:15.969Z,16.20
2022-12-24T11:31:52.691Z,17.90
2022-12-24T11:34:31.617Z,21.40
2022-12-24T11:37:17.071Z,23.50
2022-12-24T11:39:53.581Z,22.00
2022-12-24T11:42:34.557Z,22.00
2022-12-24T11:45:23.568Z,19.70
2022-12-24T11:48:00.548Z,17.80
2022-12-24T11:50:35.938Z,16.00
2022-12-24T11:53:16.691Z,16.80
2022-12-24T11:55:52.212Z,15.00
2022-12-24T11:58:35.875Z,15.20
2022-12-24T12:01:16.652Z,19.80
2022-12-24T12:03:54.983Z,21.40
2022-12-24T12:06:34.077Z,22.80
2022-12-24T12:09:09.794Z,21.00
2022-12-24T12:11:45.885Z,18.20
2022-12-24T12:14:24.103Z,17.60
2022-12-24T12:17:05.380Z,20.00
2022-12-24T12:19:44.981Z,15.10
2022-12-24T12:22:25.876Z,18.50
2022-12-24T12:25:00.194Z,18.80
2022-12-24T12:27:37.247Z,19.60
2022-12-24T12:30:19.403Z,22.40
2022-12-24T12:32:58.132Z,25.60
2022-12-24T12:35:37.121Z,25.80
2022-12-24T12:38:16.726Z,28.40
2022-12-24T12:41:28.076Z,39.60
2022-12-24T12:44:20.064Z,22.40
2022-12-24T12:47:04.068Z,25.50
2022-12-24T12:49:45.257Z,27.20
2022-12-24T12:52:24.331Z,32.20
2022-12-24T12:55:06.645Z,30.90
2022-12-24T12:57:40.089Z,30.90
2022-12-24T13:00:22.845Z,24.80
2022-12-24T13:03:18.767Z,20.20
2022-12-24T13:06:29.484Z,23.40
2022-12-24T13:09:27.000Z,21.40
2022-12-24T13:12:14.596Z,19.20
2022-12-24T13:15:03.082Z,17.90
2022-12-24T13:17:51.949Z,18.40
2022-12-24T13:20:29.762Z,25.30
2022-12-24T13:23:16.636Z,22.10
2022-12-24T13:25:56.554Z,20.60
2022-12-24T13:28:38.803Z,23.70
2022-12-24T13:31:32.230Z,26.70
2022-12-24T13:34:07.917Z,25.60
2022-12-24T13:37:05.704Z,28.50
2022-12-24T13:40:15.683Z,30.20
2022-12-24T13:43:09.395Z,34.10
2022-12-24T13:45:48.747Z,33.60
2022-12-24T13:48:33.296Z,33.80
2022-12-24T13:54:06.418Z,39.30
2022-12-24T13:56:41.114Z,47.10
2022-12-24T13:59:36.139Z,43.50
2022-12-24T14:02:22.644Z,43.30
2022-12-24T14:05:05.136Z,42.90
2022-12-24T14:07:38.951Z,46.60
2022-12-24T14:10:25.901Z,49.70
2022-12-24T14:12:57.856Z,35.70
2022-12-24T14:15:58.825Z,39.20
2022-12-24T14:18:34.602Z,47.70
2022-12-24T14:21:08.915Z,41.90
2022-12-24T14:23:46.861Z,36.80
2022-12-24T14:26:21.393Z,42.80
2022-12-24T14:28:57.661Z,43.90
2022-12-24T14:31:31.751Z,44.30
2022-12-24T14:34:13.998Z,48.40
2022-12-24T14:36:48.030Z,48.40
2022-12-24T14:39:26.626Z,52.30
2022-12-24T14:42:06.508Z,48.50
2022-12-24T14:44:45.367Z,43.30
2022-12-24T14:47:27.054Z,45.50
2022-12-24T14:50:12.277Z,40.10
2022-12-24T14:53:10.509Z,43.40
2022-12-24T14:55:47.246Z,37.60
2022-12-24T14:58:26.725Z,33.90
2022-12-24T15:01:02.744Z,35.10
2022-12-24T15:03:36.067Z,40.40
2022-12-24T15:06:10.971Z,43.90
2022-12-24T15:08:45.662Z,42.10
2022-12-24T15:11:23.532Z,42.90
2022-12-24T15:13:57.070Z,47.10
2022-12-24T15:16:32.571Z,43.40
2022-12-24T15:19:09.359Z,40.90
2022-12-24T15:21:48.538Z,41.30
2022-12-24T15:24:32.747Z,43.30
2022-12-24T15:27:19.932Z,48.70
2022-12-24T15:29:58.636Z,56.90
2022-12-24T15:32:31.011Z,56.20
2022-12-24T15:35:04.300Z,55.10
2022-12-24T15:37:40.097Z,60.60
2022-12-24T15:40:26.632Z,57.50
2022-12-24T15:43:01.102Z,60.80
2022-12-24T15:45:35.134Z,51.10
2022-12-24T15:48:12.673Z,51.10
2022-12-24T15:50:48.883Z,45.90
2022-12-24T15:53:25.667Z,50.50
2022-12-24T15:56:11.547Z,40.80
2022-12-24T15:58:47.069Z,43.20
2022-12-24T16:01:31.828Z,32.20
2022-12-24T16:04:17.630Z,115.80
2022-12-24T16:06:58.522Z,48.40
2022-12-24T16:09:46.225Z,74.30
2022-12-24T16:12:26.983Z,63.20
2022-12-24T16:15:01.516Z,50.70
2022-12-24T16:17:37.815Z,40.60
2022-12-24T16:20:21.625Z,37.70
2022-12-24T16:22:54.347Z,56.00
2022-12-24T16:25:29.928Z,37.50
2022-12-24T16:28:06.927Z,53.20
2022-12-24T16:30:45.758Z,51.10
2022-12-24T16:33:20.105Z,75.10
2022-12-24T16:35:52.935Z,73.10
2022-12-24T16:38:47.512Z,73.40
2022-12-24T16:41:24.257Z,51.40
2022-12-24T16:43:57.735Z,54.50
2022-12-24T16:46:31.268Z,46.30
2022-12-24T16:49:07.804Z,47.80
2022-12-24T16:51:46.008Z,42.40
2022-12-24T16:54:19.283Z,57.70
2022-12-24T16:56:51.910Z,58.70
2022-12-24T16:59:27.935Z,80.40
2022-12-24T17:02:05.774Z,40.30
2022-12-24T17:04:41.696Z,32.70
2022-12-24T17:07:15.991Z,35.50
2022-12-24T17:09:49.490Z,42.20
2022-12-24T17:12:23.288Z,48.20
2022-12-24T17:14:56.724Z,45.80
2022-12-24T17:17:31.842Z,58.00
2022-12-24T17:20:05.696Z,48.70
2022-12-24T17:22:39.082Z,38.80
2022-12-24T17:25:15.036Z,36.10
2022-12-24T17:27:47.600Z,51.80
2022-12-24T17:30:21.570Z,36.30
2022-12-24T17:32:53.877Z,46.80
2022-12-24T17:35:27.376Z,42.90
2022-12-24T17:38:00.253Z,32.90
2022-12-24T17:40:35.393Z,30.00
2022-12-24T17:43:11.562Z,84.50
2022-12-24T17:45:45.888Z,50.80
2022-12-24T17:48:19.383Z,56.90
2022-12-24T17:50:51.531Z,56.90
2022-12-24T17:53:27.498Z,46.60
2022-12-24T17:56:00.588Z,40.00
2022-12-24T17:58:35.478Z,68.50
2022-12-24T18:01:10.806Z,70.50
2022-12-24T18:03:46.561Z,61.80
2022-12-24T18:06:19.603Z,41.60
2022-12-24T18:08:55.114Z,54.40
2022-12-24T18:11:32.652Z,58.00
2022-12-24T18:14:08.274Z,42.10
2022-12-24T18:16:42.723Z,56.00
2022-12-24T18:19:19.969Z,47.80
2022-12-24T18:21:54.126Z,50.80
2022-12-24T18:24:29.449Z,47.40
2022-12-24T18:27:06.865Z,59.40
2022-12-24T18:29:42.949Z,36.20
2022-12-24T18:32:18.103Z,41.60
2022-12-24T18:34:58.352Z,45.70
2022-12-24T18:37:30.645Z,55.30
2022-12-24T18:40:07.919Z,46.90
2022-12-24T18:42:46.287Z,43.50
2022-12-24T18:45:18.625Z,37.50
2022-12-24T18:47:52.751Z,49.00
2022-12-24T18:50:26.189Z,45.70
2022-12-24T18:53:00.173Z,88.30
2022-12-24T18:55:38.503Z,61.30
2022-12-24T18:58:11.176Z,40.00
2022-12-24T19:00:44.209Z,54.30
2022-12-24T19:03:17.948Z,40.00
2022-12-24T19:05:51.576Z,41.20
2022-12-24T19:11:19.036Z,35.60
2022-12-24T19:13:53.524Z,46.00
2022-12-24T19:16:31.316Z,30.80
2022-12-24T19:19:07.572Z,25.70
2022-12-24T19:21:42.868Z,27.40
2022-12-24T19:24:17.293Z,38.10
2022-12-24T19:26:53.919Z,32.10
2022-12-24T19:29:26.823Z,29.80
2022-12-24T19:32:03.712Z,34.10
2022-12-24T19:34:38.575Z,31.70
2022-12-24T19:37:12.483Z,32.90
2022-12-24T19:39:47.013Z,31.60
2022-12-24T19:42:19.871Z,32.00
2022-12-24T19:44:54.928Z,30.90
2022-12-24T19:47:28.780Z,33.20
2022-12-24T19:50:06.127Z,42.80
2022-12-24T19:52:41.257Z,48.10
2022-12-24T19:55:15.999Z,50.70
2022-12-24T19:57:50.197Z,38.10
2022-12-24T20:00:24.036Z,33.40
2022-12-24T20:02:57.643Z,30.60
2022-12-24T20:05:33.917Z,35.20
2022-12-24T20:08:08.499Z,42.20
2022-12-24T20:10:44.655Z,42.90
2022-12-24T20:13:20.924Z,52.40
2022-12-24T20:15:55.732Z,43.70
2022-12-24T20:18:32.516Z,43.50
2022-12-24T20:21:13.881Z,45.40
2022-12-24T20:23:56.420Z,41.80
2022-12-24T20:26:33.785Z,42.90
2022-12-24T20:29:12.459Z,47.80
2022-12-24T20:31:54.171Z,47.70
2022-12-24T20:34:31.183Z,43.70
2022-12-24T20:37:04.888Z,46.30
2022-12-24T20:39:38.214Z,49.90
2022-12-24T20:42:11.896Z,50.90
2022-12-24T20:44:46.023Z,61.70
2022-12-24T20:47:20.729Z,73.00
2022-12-24T20:49:53.924Z,53.00
2022-12-24T20:52:28.659Z,46.50
2022-12-24T20:55:01.639Z,50.80
2022-12-24T20:57:36.895Z,53.80
2022-12-24T21:00:12.046Z,50.70
2022-12-24T21:02:46.373Z,43.10
2022-12-24T21:05:20.866Z,38.60
2022-12-24T21:07:56.225Z,58.30
2022-12-24T21:10:34.194Z,47.20
2022-12-24T21:13:08.687Z,54.20
2022-12-24T21:15:43.001Z,174.70
2022-12-24T21:18:17.738Z,52.50
2022-12-24T21:20:54.287Z,50.50
2022-12-24T21:23:31.135Z,42.70
2022-12-24T21:26:04.936Z,43.30
2022-12-24T21:28:39.001Z,48.70
2022-12-24T21:31:16.750Z,60.30
2022-12-24T21:33:51.303Z,58.70
2022-12-24T21:36:25.345Z,72.60
2022-12-24T21:38:58.989Z,62.00
2022-12-24T21:41:32.069Z,54.40
2022-12-24T21:44:06.296Z,49.80
2022-12-24T21:46:40.095Z,50.50
2022-12-24T21:49:31.435Z,45.40
2022-12-24T21:52:05.214Z,52.30
2022-12-24T21:54:39.396Z,45.50
2022-12-24T21:57:31.584Z,43.70
2022-12-24T22:00:20.422Z,59.80
2022-12-24T22:02:55.845Z,43.10
2022-12-24T22:05:30.050Z,45.60
2022-12-24T22:08:25.404Z,56.20
2022-12-24T22:11:27.935Z,44.70
2022-12-24T22:14:00.939Z,43.40
2022-12-24T22:16:36.466Z,43.20
2022-12-24T22:19:11.652Z,46.60
2022-12-24T22:21:49.458Z,42.50
2022-12-24T22:24:22.040Z,47.70
2022-12-24T22:26:55.298Z,42.50
2022-12-24T22:29:29.647Z,38.30
2022-12-24T22:32:02.271Z,36.90
2022-12-24T22:34:38.486Z,36.60
2022-12-24T22:37:13.688Z,35.50
2022-12-24T22:39:48.563Z,37.10
2022-12-24T22:42:21.623Z,36.50
2022-12-24T22:44:57.877Z,35.20
2022-12-24T22:47:32.207Z,37.00
2022-12-24T22:50:07.661Z,33.80
2022-12-24T22:52:44.933Z,33.00
2022-12-24T22:55:19.566Z,35.20
2022-12-24T22:57:53.387Z,32.20
2022-12-24T23:03:25.587Z,25.30
2022-12-24T23:06:03.098Z,32.60
2022-12-24T23:08:37.216Z,32.80
2022-12-24T23:11:15.877Z,28.30
2022-12-24T23:14:07.180Z,27.40
2022-12-24T23:16:42.594Z,28.50
2022-12-24T23:19:16.306Z,28.90
2022-12-24T23:21:51.545Z,29.90
2022-12-24T23:24:24.511Z,31.90
2022-12-24T23:27:02.293Z,27.60
2022-12-24T23:29:36.359Z,27.60
2022-12-24T23:32:12.776Z,27.50
2022-12-24T23:34:46.934Z,27.40
2022-12-24T23:37:19.272Z,29.80
2022-12-24T23:39:53.769Z,30.20
2022-12-24T23:42:26.853Z,32.20
2022-12-24T23:45:01.618Z,32.70
2022-12-24T23:47:33.904Z,31.20
2022-12-24T23:50:10.126Z,37.70
2022-12-24T23:52:42.996Z,38.90
2022-12-24T23:55:15.853Z,36.30
2022-12-24T23:57:50.551Z,37.40
